Estación Meteorológica Peña el Pijo (Robertgarden) [ 02/03/23 04:30:40 CET ]

Fecha Hora Presion(HPa) Temp (°C) Humedad % Rocio (°C) Viento ( m/s) Direccion Lluvia 1Hora(mm) Lluvia 24H(mm) LLuvia Total(mm)
2012-Mar-22 01:01:13 1012.400 0.9 87 -1.1         155.40
2012-Mar-22 02:09:05 1012.300 -0.1 88 -1.8         155.40
2012-Mar-22 03:01:16 1011.900 -1.2 89 -2.8         155.40
2012-Mar-22 04:01:15 1011.700 -1.7 89 -3.3         155.40
2012-Mar-22 05:01:16 1011.900 -2.2 90 -3.6         155.40
2012-Mar-22 06:01:14 1012.300 -2.5 90 -3.9         155.40
2012-Mar-22 07:01:16 1012.500 -3.1 90 -4.5         155.40
2012-Mar-22 08:01:17 1013.300 -3.2 89 -4.8         155.40
2012-Mar-22 09:01:13 1013.600 3.1 75 -0.9         155.40
2012-Mar-22 10:01:14 1014.000 8.6 54 -0.2         155.40
2012-Mar-22 11:01:15 1014.100 10.4 44 -1.4         155.40
2012-Mar-22 12:01:17 1013.700 12.4 38 -1.6         155.40
2012-Mar-22 13:01:14 1013.200 14.4 36 -0.6         155.40
2012-Mar-22 14:01:16 1013.000 15.5 33 -0.8         155.40
2012-Mar-22 15:01:19 1012.600 14.9 33 -1.3         155.40
2012-Mar-22 16:01:12 1012.500 16.4 32 -0.4         155.40
2012-Mar-22 17:01:14 1012.400 15.9 33 -0.5         155.40
2012-Mar-22 18:01:14 1012.400 15.1 36 0.0         155.40
2012-Mar-22 19:01:17 1012.900 8.8 48 -1.7         155.40
2012-Mar-22 20:01:13 1013.500 5.2 63 -1.3         155.40
2012-Mar-22 21:01:15 1014.300 2.7 69 -2.4         155.40
2012-Mar-22 22:01:12 1014.800 1.3 75 -2.7         155.40
2012-Mar-22 23:01:12 1015.100 0.3 77 -3.3         155.40

Temperatura Máxima:16°    Temperatura Mínima:-3°
Presión Máxima:1015.100 Hpa    Presión Mínima:1011.700 Hpa


Volver